Terminal Aerodrome Forecast
Issued by NWS

Current Version | Previous Version | Text Only | Print | Product List | Glossary On
Versions: 1 2 3 4 5 6 7 8 9 10 11 12 13 14 15
000
FTUS45 KGGW 301125
TAFSDY
TAF
KSDY 301125Z 3012/3112 VRB05KT P6SM -SHRA OVC060
     FM301700 31007KT P6SM SHRA OVC040
     FM310000 30010KT P6SM BKN140
     FM310600 27011KT P6SM SCT200
     FM310900 27011KT P6SM -SHRA BKN040=

USA.gov is the U.S. government's official web portal to all federal, state and local government web resources and services.